Time;durP1;ratioP1;P1;durP2;ratioP2;P2;SDS_P1;SDS_P2;PMS_P1;PMS_P2;Temp;Humidity;BMP_temperature;BMP_pressure;BME280_temperature;BME280_humidity;BME280_pressure;Samples;Min_cycle;Max_cycle;Signal;HPM_P1;HPM_P2
2022/06/01 00:01:03;;;;;;;9.38;8.43;;;;;18.10;101210.00;;;;5062221;28;20233;-77
2022/06/01 00:03:32;;;;;;;8.32;7.53;;;;;18.10;101216.00;;;;5069350;28;20194;-77
2022/06/01 00:06:02;;;;;;;8.95;8.15;;;;;18.10;101218.00;;;;5059411;28;20239;-77
2022/06/01 00:08:30;;;;;;;10.75;7.70;;;;;18.10;101217.00;;;;5062162;28;20202;-77
2022/06/01 00:10:57;;;;;;;8.88;8.02;;;;;18.10;101213.00;;;;5058985;28;20560;-77
2022/06/01 00:13:26;;;;;;;9.27;8.38;;;;;18.10;101222.00;;;;5068376;28;20206;-76
2022/06/01 00:15:54;;;;;;;9.13;7.97;;;;;18.10;101218.00;;;;5062905;28;20730;-77
2022/06/01 00:18:22;;;;;;;8.88;7.97;;;;;18.10;101217.00;;;;5059949;28;20203;-76
2022/06/01 00:20:49;;;;;;;9.43;7.35;;;;;18.00;101213.00;;;;5057067;28;20248;-77
2022/06/01 00:23:19;;;;;;;7.45;6.70;;;;;18.00;101218.00;;;;5067810;28;20218;-77
2022/06/01 00:25:46;;;;;;;8.23;6.45;;;;;18.00;101220.00;;;;5055091;28;20852;-76
2022/06/01 00:28:14;;;;;;;6.53;5.93;;;;;17.90;101215.00;;;;5065602;28;20206;-76
2022/06/01 00:30:42;;;;;;;7.05;6.00;;;;;17.90;101213.00;;;;5054674;28;20572;-76
2022/06/01 00:33:10;;;;;;;6.68;5.75;;;;;17.90;101206.00;;;;5058179;28;20225;-76
2022/06/01 00:35:38;;;;;;;5.57;5.07;;;;;17.90;101206.00;;;;5065797;28;20199;-76
2022/06/01 00:38:06;;;;;;;6.15;5.03;;;;;17.90;101195.00;;;;5067032;28;20244;-76
2022/06/01 00:40:35;;;;;;;4.75;4.05;;;;;17.90;101203.00;;;;5067501;28;20203;-75
2022/06/01 00:43:17;;;;;;;5.00;3.88;;;;;17.90;101201.00;;;;5066185;28;20242;-76
2022/06/01 00:45:44;;;;;;;4.57;3.85;;;;;17.90;101196.00;;;;5061608;28;20214;-75
2022/06/01 00:48:11;;;;;;;8.38;4.32;;;;;17.90;101192.00;;;;5059840;28;20195;-76
2022/06/01 00:50:41;;;;;;;4.88;4.38;;;;;17.90;101189.00;;;;5051650;28;20202;-76
2022/06/01 00:53:12;;;;;;;4.60;3.90;;;;;17.90;101190.00;;;;5066796;28;20572;-76
2022/06/01 00:55:45;;;;;;;4.32;3.83;;;;;17.80;101189.00;;;;5064194;28;20195;-76
2022/06/01 00:58:15;;;;;;;4.32;3.92;;;;;17.80;101190.00;;;;5065659;28;20198;-76
2022/06/01 01:00:44;;;;;;;4.40;3.97;;;;;17.80;101183.00;;;;5064862;28;20195;-76
2022/06/01 01:03:14;;;;;;;6.60;4.18;;;;;17.80;101189.00;;;;5055482;28;20740;-76
2022/06/01 01:05:46;;;;;;;4.80;4.32;;;;;17.80;101194.00;;;;5058434;28;20569;-76
2022/06/01 01:08:14;;;;;;;5.05;4.55;;;;;17.80;101189.00;;;;5064136;28;20269;-76
2022/06/01 01:10:43;;;;;;;4.68;4.00;;;;;17.80;101193.00;;;;5062616;28;20194;-75
2022/06/01 01:13:14;;;;;;;4.82;4.28;;;;;17.80;101193.00;;;;5059896;28;20196;-76
2022/06/01 01:15:51;;;;;;;4.35;3.92;;;;;17.70;101189.00;;;;5054707;28;20575;-76
2022/06/01 01:18:21;;;;;;;4.03;3.65;;;;;17.80;101191.00;;;;5057525;28;20204;-76
2022/06/01 01:20:58;;;;;;;5.10;4.60;;;;;17.70;101190.00;;;;5058828;28;20664;-76
2022/06/01 01:23:38;;;;;;;5.00;4.05;;;;;17.70;101183.00;;;;5057990;28;20194;-76
2022/06/01 01:26:08;;;;;;;4.53;4.13;;;;;17.70;101185.00;;;;5061413;28;20215;-76
2022/06/01 01:28:35;;;;;;;4.07;3.70;;;;;17.80;101188.00;;;;5062134;28;20194;-76
2022/06/01 01:31:06;;;;;;;4.28;3.63;;;;;17.70;101186.00;;;;5055021;28;20206;-76
2022/06/01 01:33:34;;;;;;;5.03;3.83;;;;;17.70;101181.00;;;;5053771;28;20196;-76
2022/06/01 01:36:06;;;;;;;4.68;4.13;;;;;17.70;101180.00;;;;5063206;28;20206;-76
2022/06/01 01:38:42;;;;;;;4.45;3.58;;;;;17.70;101177.00;;;;5066543;28;20202;-76
2022/06/01 01:41:14;;;;;;;4.10;3.72;;;;;17.70;101173.00;;;;5054934;28;20194;-75
2022/06/01 01:43:48;;;;;;;4.63;4.22;;;;;17.70;101177.00;;;;5063752;28;20203;-75
2022/06/01 01:46:15;;;;;;;4.10;3.72;;;;;17.70;101175.00;;;;5065194;28;20222;-75
2022/06/01 01:48:43;;;;;;;5.78;4.40;;;;;17.70;101172.00;;;;5062972;28;20194;-75
2022/06/01 01:51:12;;;;;;;5.18;4.68;;;;;17.70;101173.00;;;;5049937;28;20199;-75
2022/06/01 01:53:39;;;;;;;5.80;5.13;;;;;17.70;101174.00;;;;5056916;28;20388;-75
2022/06/01 01:56:41;;;;;;;6.97;4.97;;;;;17.60;101179.00;;;;5063646;28;20194;-75
2022/06/01 01:59:34;;;;;;;5.25;4.70;;;;;17.50;101179.00;;;;5062250;28;20190;-75
2022/06/01 02:02:07;;;;;;;5.60;4.43;;;;;17.60;101184.00;;;;5051095;28;20195;-75
2022/06/01 02:07:32;;;;;;;4.80;4.25;;;;;17.60;101181.00;;;;5066719;28;20229;-75
2022/06/01 02:12:47;;;;;;;5.20;4.70;;;;;17.60;101188.00;;;;5062339;28;20249;-76
2022/06/01 02:15:23;;;;;;;4.63;3.80;;;;;17.60;101182.00;;;;5056234;28;20195;-75
2022/06/01 02:17:53;;;;;;;5.93;4.03;;;;;17.60;101180.00;;;;5054420;28;20238;-75
2022/06/01 02:20:26;;;;;;;5.28;4.32;;;;;17.60;101176.00;;;;5064831;28;20191;-76
2022/06/01 02:22:54;;;;;;;4.28;3.88;;;;;17.60;101180.00;;;;5065412;28;20195;-76
2022/06/01 02:25:22;;;;;;;4.43;3.17;;;;;17.60;101182.00;;;;5062885;28;20199;-76
2022/06/01 02:27:53;;;;;;;3.40;2.75;;;;;17.60;101178.00;;;;5069196;28;20979;-77
2022/06/01 02:30:25;;;;;;;3.05;2.75;;;;;17.60;101173.00;;;;5067963;28;20201;-77
2022/06/01 02:32:54;;;;;;;2.80;2.50;;;;;17.60;101172.00;;;;5052883;28;20203;-77
2022/06/01 02:35:24;;;;;;;3.78;3.13;;;;;17.60;101174.00;;;;5070326;28;20211;-77
2022/06/01 02:37:56;;;;;;;2.50;2.08;;;;;17.60;101167.00;;;;5067891;28;20199;-77
2022/06/01 02:40:26;;;;;;;3.47;2.67;;;;;17.50;101170.00;;;;5068003;28;20253;-77
2022/06/01 02:42:55;;;;;;;4.88;3.42;;;;;17.50;101166.00;;;;5056806;28;20227;-77
2022/06/01 02:45:26;;;;;;;3.15;2.85;;;;;17.50;101174.00;;;;5065133;28;20202;-76
2022/06/01 02:47:56;;;;;;;3.50;2.78;;;;;17.50;101169.00;;;;5070379;28;20221;-77
2022/06/01 02:50:27;;;;;;;3.97;3.30;;;;;17.50;101167.00;;;;5071371;28;20202;-76
2022/06/01 02:52:55;;;;;;;4.70;2.70;;;;;17.50;101174.00;;;;5066290;28;20198;-74
2022/06/01 02:55:24;;;;;;;5.22;2.85;;;;;17.50;101168.00;;;;5063850;28;20219;-74
2022/06/01 02:57:53;;;;;;;2.85;2.65;;;;;17.50;101167.00;;;;5063107;28;20201;-74
2022/06/01 03:00:23;;;;;;;2.58;2.38;;;;;17.50;101175.00;;;;5065170;28;20192;-74
2022/06/01 03:02:52;;;;;;;3.88;3.22;;;;;17.40;101171.00;;;;5068638;28;20560;-74
2022/06/01 03:05:23;;;;;;;3.25;2.95;;;;;17.40;101172.00;;;;5064026;28;20191;-74
2022/06/01 03:07:51;;;;;;;3.30;2.95;;;;;17.40;101175.00;;;;5056582;28;20596;-74
2022/06/01 03:10:19;;;;;;;3.40;3.10;;;;;17.40;101169.00;;;;5068493;28;20207;-74
2022/06/01 03:12:47;;;;;;;2.60;2.38;;;;;17.30;101163.00;;;;5063852;28;20203;-74
2022/06/01 03:15:24;;;;;;;3.28;2.63;;;;;17.20;101162.00;;;;5069363;28;20195;-74
2022/06/01 03:17:53;;;;;;;3.38;2.80;;;;;17.30;101165.00;;;;5068650;28;20329;-74
2022/06/01 03:20:24;;;;;;;2.90;2.60;;;;;17.30;101157.00;;;;5070088;28;20199;-74
2022/06/01 03:22:52;;;;;;;3.50;2.67;;;;;17.30;101160.00;;;;5069650;28;20209;-74
2022/06/01 03:25:23;;;;;;;3.20;2.90;;;;;17.30;101157.00;;;;5068604;28;20191;-75
2022/06/01 03:27:51;;;;;;;4.43;2.50;;;;;17.30;101160.00;;;;5066893;28;20634;-75
2022/06/01 03:30:19;;;;;;;3.22;2.92;;;;;17.30;101163.00;;;;5068147;28;20299;-75
2022/06/01 03:32:49;;;;;;;3.05;2.75;;;;;17.20;101162.00;;;;5055184;28;20210;-75
2022/06/01 03:35:19;;;;;;;2.55;2.25;;;;;17.20;101159.00;;;;5064466;28;20195;-75
2022/06/01 03:37:47;;;;;;;3.80;2.88;;;;;17.20;101158.00;;;;5057426;28;20187;-75
2022/06/01 03:40:16;;;;;;;3.30;2.95;;;;;17.20;101160.00;;;;5069009;28;20606;-75
2022/06/01 03:42:44;;;;;;;3.20;2.80;;;;;17.20;101157.00;;;;5065201;28;20228;-75
2022/06/01 03:47:58;;;;;;;3.00;2.70;;;;;17.20;101159.00;;;;5048298;28;20237;-75
2022/06/01 03:50:27;;;;;;;8.10;2.17;;;;;17.20;101161.00;;;;5066821;28;20195;-75
2022/06/01 03:52:56;;;;;;;4.75;2.25;;;;;17.20;101155.00;;;;5064890;28;20257;-75
2022/06/01 03:55:24;;;;;;;2.38;2.17;;;;;17.10;101150.00;;;;5068012;28;20195;-75
2022/06/01 03:57:51;;;;;;;2.63;2.05;;;;;17.10;101151.00;;;;5059345;28;20207;-75
2022/06/01 04:00:22;;;;;;;2.13;1.92;;;;;17.10;101145.00;;;;5059293;28;20210;-75
2022/06/01 04:02:50;;;;;;;2.70;2.38;;;;;17.10;101140.00;;;;5062595;28;20245;-75
2022/06/01 04:05:20;;;;;;;3.33;2.50;;;;;17.10;101135.00;;;;5067869;28;20653;-75
2022/06/01 04:07:47;;;;;;;3.10;2.28;;;;;17.20;101126.00;;;;5054428;28;20225;-74
2022/06/01 04:10:15;;;;;;;2.50;2.30;;;;;17.20;101141.00;;;;5057495;28;20192;-74
2022/06/01 04:12:42;;;;;;;3.38;2.90;;;;;17.20;101146.00;;;;5054192;28;20191;-75
2022/06/01 04:15:11;;;;;;;3.58;2.95;;;;;17.20;101150.00;;;;5066132;28;20218;-75
2022/06/01 04:17:39;;;;;;;2.70;2.47;;;;;17.20;101145.00;;;;5053798;28;20198;-75
2022/06/01 04:20:08;;;;;;;3.45;2.92;;;;;17.20;101147.00;;;;5067863;28;20202;-75
2022/06/01 04:22:41;;;;;;;4.22;3.53;;;;;17.20;101145.00;;;;5052192;28;20199;-75
2022/06/01 04:25:11;;;;;;;4.72;3.25;;;;;17.20;101158.00;;;;5052996;28;20195;-75
2022/06/01 04:27:39;;;;;;;3.85;3.33;;;;;17.20;101161.00;;;;5055718;28;20601;-75
2022/06/01 04:30:09;;;;;;;4.15;3.53;;;;;17.20;101156.00;;;;5061039;28;20195;-75
2022/06/01 04:32:37;;;;;;;4.22;3.80;;;;;17.30;101161.00;;;;5056499;28;20183;-75
2022/06/01 04:35:06;;;;;;;4.07;3.47;;;;;17.30;101161.00;;;;5055287;28;20191;-75
2022/06/01 04:37:33;;;;;;;4.90;4.20;;;;;17.30;101152.00;;;;5052846;28;20192;-75
2022/06/01 04:40:02;;;;;;;4.82;4.32;;;;;17.30;101159.00;;;;5062963;28;20930;-75
2022/06/01 04:42:30;;;;;;;5.72;4.47;;;;;17.30;101160.00;;;;5054924;28;20227;-75
2022/06/01 04:44:57;;;;;;;6.28;4.80;;;;;17.30;101159.00;;;;5060586;28;20223;-76
2022/06/01 04:47:24;;;;;;;5.35;4.85;;;;;17.30;101154.00;;;;5063401;28;20215;-75
2022/06/01 04:49:52;;;;;;;6.43;4.38;;;;;17.30;101171.00;;;;5061189;28;20696;-75
2022/06/01 04:52:19;;;;;;;5.05;4.53;;;;;17.40;101168.00;;;;5065534;28;20188;-75
2022/06/01 04:54:47;;;;;;;5.43;4.68;;;;;17.40;101170.00;;;;5064250;28;20559;-75
2022/06/01 04:57:15;;;;;;;8.27;4.57;;;;;17.40;101170.00;;;;5059026;28;20195;-76
2022/06/01 04:59:43;;;;;;;7.55;5.30;;;;;17.40;101172.00;;;;5066045;28;20560;-76
2022/06/01 05:02:10;;;;;;;6.15;3.92;;;;;17.50;101170.00;;;;5054579;28;20211;-75
2022/06/01 05:04:40;;;;;;;4.38;3.83;;;;;17.50;101174.00;;;;5068383;28;20198;-75
2022/06/01 05:07:08;;;;;;;4.13;3.72;;;;;17.50;101170.00;;;;5057007;28;20229;-75
2022/06/01 05:09:35;;;;;;;4.65;4.13;;;;;17.50;101171.00;;;;5055512;28;20790;-75
2022/06/01 05:12:03;;;;;;;3.80;3.42;;;;;17.50;101169.00;;;;5065776;28;20211;-75
2022/06/01 05:14:32;;;;;;;3.85;3.33;;;;;17.60;101179.00;;;;5067529;28;20210;-75
2022/06/01 05:17:00;;;;;;;4.35;3.70;;;;;17.60;101183.00;;;;5053734;28;20196;-75
2022/06/01 05:19:28;;;;;;;4.05;3.55;;;;;17.60;101184.00;;;;5064973;28;20211;-75
2022/06/01 05:21:57;;;;;;;3.97;3.58;;;;;17.70;101181.00;;;;5062405;28;20191;-75
2022/06/01 05:24:24;;;;;;;3.80;2.83;;;;;17.70;101183.00;;;;5062688;28;20191;-75
2022/06/01 05:26:52;;;;;;;3.85;3.42;;;;;17.70;101183.00;;;;5055872;28;20222;-75
2022/06/01 05:29:19;;;;;;;4.68;3.92;;;;;17.80;101187.00;;;;5058370;28;20206;-75
2022/06/01 05:31:48;;;;;;;4.35;3.60;;;;;17.80;101192.00;;;;5065746;28;20202;-76
2022/06/01 05:34:15;;;;;;;4.97;3.63;;;;;17.80;101193.00;;;;5063394;28;20285;-76
2022/06/01 05:36:43;;;;;;;4.05;3.65;;;;;17.90;101190.00;;;;5062381;28;20196;-76
2022/06/01 05:39:10;;;;;;;5.40;3.85;;;;;17.90;101195.00;;;;5064472;28;20209;-77
2022/06/01 05:41:37;;;;;;;4.57;4.13;;;;;18.00;101186.00;;;;5060853;28;20215;-76
2022/06/01 05:44:06;;;;;;;4.68;4.15;;;;;18.00;101190.00;;;;5058121;28;20187;-77
2022/06/01 05:46:35;;;;;;;4.10;3.53;;;;;18.10;101191.00;;;;5061519;28;20586;-77
2022/06/01 05:49:03;;;;;;;4.63;3.65;;;;;18.10;101192.00;;;;5061344;28;20231;-77
2022/06/01 05:51:31;;;;;;;3.65;3.05;;;;;18.20;101195.00;;;;5054277;28;20192;-77
2022/06/01 05:53:58;;;;;;;3.75;3.35;;;;;18.20;101190.00;;;;5066624;28;20195;-76
2022/06/01 05:56:26;;;;;;;4.28;3.80;;;;;18.30;101208.00;;;;5065263;28;20199;-75
2022/06/01 05:58:53;;;;;;;3.42;3.13;;;;;18.30;101213.00;;;;5065980;28;20290;-75
2022/06/01 06:01:22;;;;;;;4.30;3.60;;;;;18.40;101207.00;;;;5067122;28;20195;-78
2022/06/01 06:03:49;;;;;;;3.45;3.10;;;;;18.50;101211.00;;;;5065241;28;20195;-76
2022/06/01 06:06:18;;;;;;;4.50;3.33;;;;;18.50;101218.00;;;;5047452;28;20223;-75
2022/06/01 06:08:49;;;;;;;3.47;3.05;;;;;18.60;101210.00;;;;5056367;28;20219;-76
2022/06/01 06:11:17;;;;;;;3.88;3.13;;;;;18.60;101216.00;;;;5053572;28;20195;-75
2022/06/01 06:13:45;;;;;;;3.60;3.30;;;;;18.70;101218.00;;;;5049633;28;20203;-75
2022/06/01 06:16:14;;;;;;;3.90;3.50;;;;;18.80;101219.00;;;;5052042;28;20198;-75
2022/06/01 06:18:42;;;;;;;4.43;3.30;;;;;18.80;101218.00;;;;5067877;28;20187;-75
2022/06/01 06:21:10;;;;;;;5.30;4.22;;;;;18.90;101220.00;;;;5062777;28;20199;-77
2022/06/01 06:23:39;;;;;;;6.32;3.95;;;;;18.90;101221.00;;;;5064287;28;20198;-75
2022/06/01 06:26:07;;;;;;;4.10;3.70;;;;;19.00;101231.00;;;;5063148;28;20206;-75
2022/06/01 06:28:35;;;;;;;4.53;3.95;;;;;19.00;101222.00;;;;5063391;28;20231;-75
2022/06/01 06:31:02;;;;;;;4.35;3.88;;;;;19.10;101230.00;;;;5047315;28;20207;-75
2022/06/01 06:33:30;;;;;;;4.43;3.50;;;;;19.20;101234.00;;;;5059788;28;20218;-75
2022/06/01 06:35:59;;;;;;;3.95;3.53;;;;;19.20;101226.00;;;;5047465;28;20187;-75
2022/06/01 06:38:28;;;;;;;3.97;3.55;;;;;19.30;101230.00;;;;5048500;28;20211;-76
2022/06/01 06:40:58;;;;;;;3.53;3.15;;;;;19.40;101235.00;;;;5066013;28;20199;-74
2022/06/01 06:43:27;;;;;;;3.55;3.25;;;;;19.40;101233.00;;;;5065152;28;20226;-74
2022/06/01 06:45:59;;;;;;;3.50;2.97;;;;;19.50;101239.00;;;;5046879;28;20199;-75
2022/06/01 06:48:27;;;;;;;4.15;2.95;;;;;19.60;101239.00;;;;5047901;28;20219;-74
2022/06/01 06:50:54;;;;;;;5.50;3.00;;;;;19.70;101244.00;;;;5066650;28;20206;-75
2022/06/01 06:53:22;;;;;;;4.28;3.28;;;;;19.70;101244.00;;;;5054522;28;20203;-74
2022/06/01 06:55:50;;;;;;;2.80;2.28;;;;;19.80;101245.00;;;;5050759;28;20269;-75
2022/06/01 06:58:19;;;;;;;4.97;3.05;;;;;19.90;101251.00;;;;5061365;28;20191;-77
2022/06/01 07:00:46;;;;;;;3.00;2.70;;;;;20.00;101252.00;;;;5060035;28;20198;-75
2022/06/01 07:03:13;;;;;;;3.45;2.90;;;;;20.10;101258.00;;;;5050367;28;20646;-75
2022/06/01 07:08:27;;;;;;;2.53;2.30;;;;;20.30;101260.00;;;;5063317;28;20222;-76
2022/06/01 07:10:55;;;;;;;3.78;2.78;;;;;20.40;101260.00;;;;5056758;28;20199;-75
2022/06/01 07:13:24;;;;;;;3.42;3.05;;;;;20.50;101263.00;;;;5067619;28;20194;-76
2022/06/01 07:16:04;;;;;;;3.17;2.80;;;;;20.50;101267.00;;;;5062402;28;20206;-75
2022/06/01 07:18:32;;;;;;;3.20;2.38;;;;;20.60;101272.00;;;;5068432;28;20281;-75
2022/06/01 07:21:00;;;;;;;3.05;2.33;;;;;20.60;101272.00;;;;5061628;28;20784;-76
2022/06/01 07:23:28;;;;;;;2.88;2.40;;;;;20.70;101269.00;;;;5065519;28;20286;-76
2022/06/01 07:25:55;;;;;;;5.55;2.55;;;;;20.80;101268.00;;;;5056958;28;20578;-76
2022/06/01 07:28:24;;;;;;;2.50;2.30;;;;;20.90;101266.00;;;;5054072;28;20220;-76
2022/06/01 07:30:56;;;;;;;2.42;2.03;;;;;21.00;101266.00;;;;5050365;28;20701;-77
2022/06/01 07:33:25;;;;;;;3.25;1.88;;;;;21.10;101266.00;;;;5063351;28;20211;-77
2022/06/01 07:35:53;;;;;;;3.05;1.98;;;;;21.20;101273.00;;;;5050801;28;20203;-77
2022/06/01 07:43:53;;;;;;;2.22;1.80;;;;;21.40;101277.00;;;;5061174;28;20202;-79
2022/06/01 07:46:20;;;;;;;2.10;1.70;;;;;21.50;101270.00;;;;5065222;28;20199;-77
2022/06/01 07:48:49;;;;;;;2.10;1.88;;;;;21.50;101273.00;;;;5052812;28;20220;-77
2022/06/01 07:51:18;;;;;;;3.45;1.27;;;;;21.50;101271.00;;;;5059587;28;20210;-77
2022/06/01 07:53:45;;;;;;;1.52;1.42;;;;;21.60;101269.00;;;;5058741;28;20195;-79
2022/06/01 07:56:13;;;;;;;3.85;1.80;;;;;21.70;101275.00;;;;5055431;28;20203;-78
2022/06/01 07:58:40;;;;;;;3.17;1.58;;;;;21.70;101274.00;;;;5061121;28;20196;-77
2022/06/01 08:01:09;;;;;;;1.70;1.48;;;;;21.70;101273.00;;;;5065060;28;20202;-78
2022/06/01 08:03:36;;;;;;;2.35;2.00;;;;;21.80;101278.00;;;;5067454;28;20207;-78
2022/06/01 08:06:04;;;;;;;3.22;1.83;;;;;21.80;101281.00;;;;5058685;28;20227;-78
2022/06/01 08:08:31;;;;;;;1.48;1.38;;;;;21.90;101274.00;;;;5059672;28;20631;-78
2022/06/01 08:10:59;;;;;;;2.53;1.88;;;;;21.90;101278.00;;;;5066671;28;20203;-79
2022/06/01 08:13:26;;;;;;;3.88;1.80;;;;;22.00;101274.00;;;;5069070;28;20281;-78
2022/06/01 08:15:55;;;;;;;3.53;1.70;;;;;21.90;101282.00;;;;5064246;28;20293;-78
2022/06/01 08:18:25;;;;;;;1.80;1.48;;;;;21.90;101279.00;;;;5059953;28;20201;-78
2022/06/01 08:20:53;;;;;;;4.40;1.83;;;;;21.90;101282.00;;;;5057879;28;20210;-79
2022/06/01 08:23:22;;;;;;;2.15;1.88;;;;;21.90;101285.00;;;;5066813;28;20699;-80
2022/06/01 08:25:50;;;;;;;2.00;1.75;;;;;21.80;101280.00;;;;5065666;28;20195;-78
2022/06/01 08:28:17;;;;;;;1.58;1.35;;;;;21.80;101279.00;;;;5060965;28;20223;-78
2022/06/01 08:30:45;;;;;;;2.47;1.80;;;;;21.70;101280.00;;;;5058623;28;20199;-79
2022/06/01 08:33:13;;;;;;;1.85;1.67;;;;;21.70;101276.00;;;;5055668;28;20566;-79
2022/06/01 08:35:43;;;;;;;3.03;1.80;;;;;21.60;101273.00;;;;5063910;28;20192;-79
2022/06/01 08:38:11;;;;;;;2.03;1.65;;;;;21.60;101277.00;;;;5052018;28;20200;-79
2022/06/01 08:40:54;;;;;;;2.55;1.70;;;;;21.50;101274.00;;;;5067980;28;20268;-78
2022/06/01 08:43:24;;;;;;;8.77;1.80;;;;;21.60;101273.00;;;;5048591;28;20262;-78
2022/06/01 08:45:56;;;;;;;1.98;1.80;;;;;21.60;101276.00;;;;5052661;28;20199;-78
2022/06/01 08:48:32;;;;;;;2.63;2.22;;;;;21.60;101274.00;;;;5067258;28;20250;-79
2022/06/01 08:51:01;;;;;;;1.80;1.70;;;;;21.60;101270.00;;;;5052238;28;20194;-79
2022/06/01 08:53:29;;;;;;;3.17;1.50;;;;;21.60;101271.00;;;;5068055;28;20565;-78
2022/06/01 08:56:01;;;;;;;2.72;1.60;;;;;21.50;101272.00;;;;5063648;28;20246;-78
2022/06/01 08:58:34;;;;;;;1.88;1.25;;;;;21.50;101277.00;;;;5064899;28;20263;-78
2022/06/01 09:01:12;;;;;;;1.63;1.50;;;;;21.40;101278.00;;;;5054313;28;20203;-79
2022/06/01 09:03:49;;;;;;;1.73;1.42;;;;;21.40;101272.00;;;;5050174;28;20195;-79
2022/06/01 09:06:25;;;;;;;1.50;1.40;;;;;21.40;101281.00;;;;5058381;28;20211;-79
2022/06/01 09:08:56;;;;;;;1.25;1.15;;;;;21.40;101281.00;;;;5055295;28;20280;-79
2022/06/01 09:11:29;;;;;;;2.05;1.25;;;;;21.30;101289.00;;;;5062804;28;20573;-79
2022/06/01 09:14:04;;;;;;;1.50;1.15;;;;;21.30;101286.00;;;;5061783;28;20210;-78
2022/06/01 09:16:35;;;;;;;2.05;1.45;;;;;21.30;101288.00;;;;5063674;28;20186;-80
2022/06/01 09:19:03;;;;;;;4.20;1.23;;;;;21.30;101279.00;;;;5065530;28;20210;-77
2022/06/01 09:24:22;;;;;;;1.30;1.05;;;;;21.30;101292.00;;;;5060258;28;20203;-77
2022/06/01 09:26:57;;;;;;;0.93;0.82;;;;;21.40;101285.00;;;;5055065;28;20199;-76
2022/06/01 09:29:28;;;;;;;3.38;1.38;;;;;21.50;101292.00;;;;5053276;28;20603;-77
2022/06/01 09:32:01;;;;;;;1.75;1.38;;;;;21.60;101292.00;;;;5059914;28;20260;-77
2022/06/01 09:34:41;;;;;;;2.28;1.70;;;;;21.70;101288.00;;;;5050941;28;20199;-77
2022/06/01 09:37:13;;;;;;;1.80;1.40;;;;;21.90;101287.00;;;;5057476;28;20194;-77
2022/06/01 09:39:50;;;;;;;1.63;1.17;;;;;21.90;101289.00;;;;5063731;28;20194;-77
2022/06/01 09:42:25;;;;;;;1.40;1.30;;;;;22.00;101295.00;;;;5054413;28;20223;-77
2022/06/01 09:44:55;;;;;;;2.88;1.15;;;;;22.10;101297.00;;;;5055608;28;20206;-77
2022/06/01 09:47:39;;;;;;;2.53;1.65;;;;;22.10;101284.00;;;;5057648;28;20190;-77
2022/06/01 09:50:21;;;;;;;1.80;1.30;;;;;22.30;101292.00;;;;5058380;28;20261;-77
2022/06/01 09:52:55;;;;;;;2.00;1.17;;;;;22.30;101289.00;;;;5061769;28;20202;-76
2022/06/01 09:55:24;;;;;;;0.95;0.85;;;;;22.40;101298.00;;;;5066538;28;20202;-76
2022/06/01 09:58:04;;;;;;;1.40;1.08;;;;;22.40;101291.00;;;;5051802;28;20217;-77
2022/06/01 10:06:25;;;;;;;1.92;1.27;;;;;22.70;101303.00;;;;5052015;28;20225;-80
2022/06/01 10:09:01;;;;;;;1.45;1.00;;;;;22.80;101290.00;;;;5047949;28;20223;-79
2022/06/01 10:11:32;;;;;;;1.65;1.23;;;;;23.00;101298.00;;;;5047441;28;20576;-81
2022/06/01 10:14:14;;;;;;;1.27;0.95;;;;;23.10;101295.00;;;;5064653;28;20214;-79
2022/06/01 10:16:52;;;;;;;1.45;0.90;;;;;23.20;101304.00;;;;5050419;28;20666;-80
2022/06/01 10:19:26;;;;;;;1.60;1.15;;;;;23.30;101304.00;;;;5057311;28;20198;-79
2022/06/01 10:21:58;;;;;;;1.40;0.80;;;;;23.40;101295.00;;;;5066492;28;20859;-82
2022/06/01 10:24:31;;;;;;;1.42;0.88;;;;;23.50;101297.00;;;;5058042;28;20191;-82
2022/06/01 10:27:00;;;;;;;2.35;1.10;;;;;23.50;101301.00;;;;5049343;28;20188;-82
2022/06/01 10:29:33;;;;;;;1.70;0.93;;;;;23.60;101304.00;;;;5056254;28;20706;-82
2022/06/01 10:32:07;;;;;;;0.73;0.68;;;;;23.60;101306.00;;;;5067527;28;20206;-77
2022/06/01 10:34:42;;;;;;;1.25;0.60;;;;;23.60;101311.00;;;;5064744;28;20199;-77
2022/06/01 10:37:19;;;;;;;3.63;0.70;;;;;23.60;101314.00;;;;5066224;28;20198;-78
2022/06/01 10:39:52;;;;;;;0.50;0.50;;;;;23.70;101318.00;;;;5063494;28;20563;-77
2022/06/01 10:43:16;;;;;;;2.13;0.80;;;;;23.70;101316.00;;;;5066845;28;20223;-77
2022/06/01 10:45:15;;;;;;;0.98;0.43;;;;;23.80;101326.00;;;;5070110;28;20210;-77
2022/06/01 10:47:54;;;;;;;0.68;0.60;;;;;23.90;101312.00;;;;5052056;28;20204;-77
2022/06/01 10:50:26;;;;;;;0.82;0.60;;;;;24.00;101312.00;;;;5066632;28;20901;-77
2022/06/01 10:53:01;;;;;;;0.90;0.80;;;;;24.00;101320.00;;;;5067422;28;20211;-77
2022/06/01 10:55:32;;;;;;;3.80;0.80;;;;;24.10;101319.00;;;;5055398;28;20293;-78
2022/06/01 10:58:02;;;;;;;1.08;0.45;;;;;24.10;101327.00;;;;5059558;28;20203;-78
2022/06/01 11:00:33;;;;;;;1.60;0.73;;;;;24.20;101322.00;;;;5059623;28;20203;-77
2022/06/01 11:03:20;;;;;;;1.70;0.50;;;;;24.10;101328.00;;;;5064470;28;20201;-76
2022/06/01 11:05:54;;;;;;;0.40;0.40;;;;;24.10;101343.00;;;;5053474;28;21193;-78
2022/06/01 11:08:35;;;;;;;0.70;0.60;;;;;24.00;101344.00;;;;5069677;28;20210;-77
2022/06/01 11:11:10;;;;;;;1.20;0.65;;;;;23.90;101344.00;;;;5060584;28;20200;-76
2022/06/01 11:13:57;;;;;;;0.50;0.50;;;;;23.80;101348.00;;;;5058185;28;20371;-76
2022/06/01 11:16:35;;;;;;;0.47;0.47;;;;;23.80;101340.00;;;;5065264;28;20203;-77
2022/06/01 11:19:13;;;;;;;0.93;0.60;;;;;23.80;101346.00;;;;5064626;28;20206;-77
2022/06/01 11:21:49;;;;;;;0.75;0.57;;;;;23.80;101339.00;;;;5051225;28;20203;-78
2022/06/01 11:24:32;;;;;;;0.55;0.50;;;;;23.80;101341.00;;;;5050586;28;20688;-78
2022/06/01 11:27:18;;;;;;;0.73;0.50;;;;;23.80;101346.00;;;;5058280;28;20187;-79
2022/06/01 11:30:01;;;;;;;0.90;0.30;;;;;23.80;101343.00;;;;5049978;28;20230;-77
2022/06/01 11:32:34;;;;;;;3.17;0.60;;;;;23.80;101344.00;;;;5066297;28;20203;-78
2022/06/01 11:35:05;;;;;;;0.52;0.40;;;;;23.80;101343.00;;;;5064161;28;20199;-78
2022/06/01 11:37:36;;;;;;;2.15;0.68;;;;;23.80;101346.00;;;;5060451;28;20196;-79
2022/06/01 11:40:09;;;;;;;0.82;0.30;;;;;23.80;101355.00;;;;5068669;28;20256;-79
2022/06/01 11:42:43;;;;;;;0.80;0.55;;;;;23.90;101348.00;;;;5066506;28;20230;-82
2022/06/01 11:45:16;;;;;;;0.43;0.43;;;;;23.90;101349.00;;;;5056334;28;20202;-79
2022/06/01 11:47:46;;;;;;;0.30;0.30;;;;;23.90;101357.00;;;;5034518;28;20195;-80
2022/06/01 11:50:26;;;;;;;2.97;0.40;;;;;23.90;101352.00;;;;5068352;28;20232;-79
2022/06/01 11:53:01;;;;;;;0.82;0.38;;;;;23.90;101352.00;;;;5058821;28;20199;-82
2022/06/01 11:55:45;;;;;;;1.67;0.75;;;;;23.80;101362.00;;;;5054719;28;20209;-80
2022/06/01 11:58:21;;;;;;;1.38;0.50;;;;;23.90;101357.00;;;;5062228;28;20213;-82
2022/06/01 12:00:54;;;;;;;0.70;0.52;;;;;23.80;101365.00;;;;5059062;28;20201;-80
2022/06/01 12:03:56;;;;;;;1.05;0.75;;;;;23.80;101366.00;;;;5067316;28;20945;-82
2022/06/01 12:06:45;;;;;;;0.73;0.60;;;;;23.80;101364.00;;;;5061724;28;20307;-81
2022/06/01 12:09:23;;;;;;;2.42;0.85;;;;;23.80;101368.00;;;;5055793;28;21120;-81
2022/06/01 12:11:51;;;;;;;1.05;0.68;;;;;23.80;101364.00;;;;5057174;28;20744;-81
2022/06/01 12:14:31;;;;;;;1.23;0.80;;;;;23.60;101360.00;;;;5061451;28;20198;-82
2022/06/01 12:17:31;;;;;;;1.50;0.70;;;;;23.50;101364.00;;;;5062668;28;20397;-82
2022/06/01 12:20:41;;;;;;;1.30;0.47;;;;;23.40;101360.00;;;;5058430;28;20207;-83
2022/06/01 12:29:42;;;;;;;2.35;1.08;;;;;23.30;101379.00;;;;5067751;28;20254;-81
2022/06/01 12:32:19;;;;;;;1.30;1.10;;;;;23.30;101378.00;;;;5066543;28;20213;-79
2022/06/01 12:35:11;;;;;;;1.75;0.75;;;;;23.20;101376.00;;;;5061908;28;20605;-79
2022/06/01 12:37:49;;;;;;;1.00;0.90;;;;;23.30;101383.00;;;;5062984;28;20195;-79
2022/06/01 12:40:20;;;;;;;1.55;0.90;;;;;23.30;101382.00;;;;5066014;28;20731;-78
2022/06/01 12:42:56;;;;;;;2.13;1.08;;;;;23.30;101383.00;;;;5059571;28;20263;-79
2022/06/01 12:45:28;;;;;;;1.40;1.30;;;;;23.30;101387.00;;;;5057155;28;20195;-79
2022/06/01 12:48:02;;;;;;;2.40;1.05;;;;;23.20;101391.00;;;;5064725;28;20194;-82
2022/06/01 12:50:32;;;;;;;3.35;1.95;;;;;23.30;101388.00;;;;5057617;28;20229;-79
2022/06/01 12:53:19;;;;;;;1.48;1.00;;;;;23.10;101391.00;;;;5062795;28;20195;-80
2022/06/01 12:55:47;;;;;;;2.80;0.98;;;;;23.20;101388.00;;;;5067331;28;20234;-80
2022/06/01 12:58:20;;;;;;;4.53;1.17;;;;;23.20;101386.00;;;;5068506;28;20191;-83
2022/06/01 13:00:52;;;;;;;2.92;1.25;;;;;23.10;101385.00;;;;5063429;28;20251;-79